sensor_id;sensor_type;location;lat;lon;timestamp;P1;durP1;ratioP1;P2;durP2;ratioP2
45338;SDS011;31071;51.478;5.710;2023-07-13T00:01:57;6.45;;;2.58;;
45338;SDS011;31071;51.478;5.710;2023-07-13T00:04:23;6.88;;;2.40;;
45338;SDS011;31071;51.478;5.710;2023-07-13T00:06:52;9.82;;;2.72;;
45338;SDS011;31071;51.478;5.710;2023-07-13T00:09:19;10.05;;;3.28;;
45338;SDS011;31071;51.478;5.710;2023-07-13T00:11:50;7.35;;;2.83;;
45338;SDS011;31071;51.478;5.710;2023-07-13T00:14:20;15.07;;;3.13;;
45338;SDS011;31071;51.478;5.710;2023-07-13T00:16:46;8.60;;;2.90;;
45338;SDS011;31071;51.478;5.710;2023-07-13T00:19:18;9.38;;;2.72;;
45338;SDS011;31071;51.478;5.710;2023-07-13T00:21:43;4.10;;;2.03;;
45338;SDS011;31071;51.478;5.710;2023-07-13T00:24:10;7.65;;;2.20;;
45338;SDS011;31071;51.478;5.710;2023-07-13T00:26:39;4.05;;;2.00;;
45338;SDS011;31071;51.478;5.710;2023-07-13T00:29:05;8.57;;;2.42;;
45338;SDS011;31071;51.478;5.710;2023-07-13T00:31:34;9.70;;;2.35;;
45338;SDS011;31071;51.478;5.710;2023-07-13T00:34:01;6.43;;;2.00;;
45338;SDS011;31071;51.478;5.710;2023-07-13T00:36:27;7.90;;;2.15;;
45338;SDS011;31071;51.478;5.710;2023-07-13T00:38:52;9.82;;;2.38;;
45338;SDS011;31071;51.478;5.710;2023-07-13T00:41:18;11.75;;;2.42;;
45338;SDS011;31071;51.478;5.710;2023-07-13T00:43:44;8.18;;;2.50;;
45338;SDS011;31071;51.478;5.710;2023-07-13T00:46:16;8.65;;;2.67;;
45338;SDS011;31071;51.478;5.710;2023-07-13T00:48:45;7.28;;;2.28;;
45338;SDS011;31071;51.478;5.710;2023-07-13T00:51:12;6.72;;;2.05;;
45338;SDS011;31071;51.478;5.710;2023-07-13T00:53:41;10.85;;;2.15;;
45338;SDS011;31071;51.478;5.710;2023-07-13T00:56:07;6.45;;;1.65;;
45338;SDS011;31071;51.478;5.710;2023-07-13T00:58:34;4.03;;;2.08;;
45338;SDS011;31071;51.478;5.710;2023-07-13T01:01:00;5.63;;;2.13;;
45338;SDS011;31071;51.478;5.710;2023-07-13T01:03:26;6.47;;;2.10;;
45338;SDS011;31071;51.478;5.710;2023-07-13T01:05:52;8.63;;;2.22;;
45338;SDS011;31071;51.478;5.710;2023-07-13T01:08:19;7.32;;;2.35;;
45338;SDS011;31071;51.478;5.710;2023-07-13T01:10:57;6.97;;;2.08;;
45338;SDS011;31071;51.478;5.710;2023-07-13T01:13:24;7.38;;;2.10;;
45338;SDS011;31071;51.478;5.710;2023-07-13T01:15:52;10.63;;;2.30;;
45338;SDS011;31071;51.478;5.710;2023-07-13T01:20:54;9.80;;;2.25;;
45338;SDS011;31071;51.478;5.710;2023-07-13T01:23:29;9.73;;;3.20;;
45338;SDS011;31071;51.478;5.710;2023-07-13T01:25:59;7.10;;;2.38;;
45338;SDS011;31071;51.478;5.710;2023-07-13T01:28:31;5.88;;;2.00;;
45338;SDS011;31071;51.478;5.710;2023-07-13T01:31:12;7.75;;;2.70;;
45338;SDS011;31071;51.478;5.710;2023-07-13T01:33:46;5.55;;;2.10;;
45338;SDS011;31071;51.478;5.710;2023-07-13T01:36:22;7.75;;;2.20;;
45338;SDS011;31071;51.478;5.710;2023-07-13T01:39:00;8.20;;;2.28;;
45338;SDS011;31071;51.478;5.710;2023-07-13T01:42:05;10.27;;;2.60;;
45338;SDS011;31071;51.478;5.710;2023-07-13T01:44:40;9.75;;;2.08;;
45338;SDS011;31071;51.478;5.710;2023-07-13T01:47:12;5.53;;;2.33;;
45338;SDS011;31071;51.478;5.710;2023-07-13T01:52:35;4.68;;;2.03;;
45338;SDS011;31071;51.478;5.710;2023-07-13T01:55:26;9.98;;;2.63;;
45338;SDS011;31071;51.478;5.710;2023-07-13T01:58:12;10.45;;;2.50;;
45338;SDS011;31071;51.478;5.710;2023-07-13T02:03:45;7.88;;;2.38;;
45338;SDS011;31071;51.478;5.710;2023-07-13T02:06:33;8.70;;;2.40;;
45338;SDS011;31071;51.478;5.710;2023-07-13T02:09:21;7.57;;;2.90;;
45338;SDS011;31071;51.478;5.710;2023-07-13T02:12:02;10.32;;;3.28;;
45338;SDS011;31071;51.478;5.710;2023-07-13T02:14:40;9.00;;;2.83;;
45338;SDS011;31071;51.478;5.710;2023-07-13T02:17:23;11.13;;;3.63;;
45338;SDS011;31071;51.478;5.710;2023-07-13T02:19:56;9.55;;;3.20;;
45338;SDS011;31071;51.478;5.710;2023-07-13T02:22:27;14.82;;;3.38;;
45338;SDS011;31071;51.478;5.710;2023-07-13T02:24:56;10.07;;;2.97;;
45338;SDS011;31071;51.478;5.710;2023-07-13T02:27:22;13.73;;;3.88;;
45338;SDS011;31071;51.478;5.710;2023-07-13T02:29:48;12.70;;;3.30;;
45338;SDS011;31071;51.478;5.710;2023-07-13T02:32:16;9.00;;;2.67;;
45338;SDS011;31071;51.478;5.710;2023-07-13T02:34:42;7.57;;;2.58;;
45338;SDS011;31071;51.478;5.710;2023-07-13T02:37:11;9.27;;;2.80;;
45338;SDS011;31071;51.478;5.710;2023-07-13T02:39:37;10.73;;;2.72;;
45338;SDS011;31071;51.478;5.710;2023-07-13T02:42:06;8.23;;;2.67;;
45338;SDS011;31071;51.478;5.710;2023-07-13T02:44:32;5.85;;;2.65;;
45338;SDS011;31071;51.478;5.710;2023-07-13T02:46:58;9.25;;;3.05;;
45338;SDS011;31071;51.478;5.710;2023-07-13T02:49:24;13.82;;;3.40;;
45338;SDS011;31071;51.478;5.710;2023-07-13T02:51:52;18.92;;;3.67;;
45338;SDS011;31071;51.478;5.710;2023-07-13T02:54:18;12.65;;;3.45;;
45338;SDS011;31071;51.478;5.710;2023-07-13T02:56:44;12.32;;;3.50;;
45338;SDS011;31071;51.478;5.710;2023-07-13T02:59:10;7.35;;;3.40;;
45338;SDS011;31071;51.478;5.710;2023-07-13T03:01:36;13.18;;;3.15;;
45338;SDS011;31071;51.478;5.710;2023-07-13T03:04:02;12.52;;;3.55;;
45338;SDS011;31071;51.478;5.710;2023-07-13T03:06:28;8.13;;;3.15;;
45338;SDS011;31071;51.478;5.710;2023-07-13T03:08:55;9.25;;;3.40;;
45338;SDS011;31071;51.478;5.710;2023-07-13T03:11:21;9.68;;;3.00;;
45338;SDS011;31071;51.478;5.710;2023-07-13T03:13:47;6.25;;;2.47;;
45338;SDS011;31071;51.478;5.710;2023-07-13T03:16:13;9.43;;;2.80;;
45338;SDS011;31071;51.478;5.710;2023-07-13T03:18:41;7.88;;;2.90;;
45338;SDS011;31071;51.478;5.710;2023-07-13T03:21:07;8.13;;;2.72;;
45338;SDS011;31071;51.478;5.710;2023-07-13T03:23:33;9.60;;;3.40;;
45338;SDS011;31071;51.478;5.710;2023-07-13T03:26:07;8.27;;;3.38;;
45338;SDS011;31071;51.478;5.710;2023-07-13T03:28:38;13.23;;;3.22;;
45338;SDS011;31071;51.478;5.710;2023-07-13T03:31:08;7.68;;;3.15;;
45338;SDS011;31071;51.478;5.710;2023-07-13T03:33:35;8.35;;;3.17;;
45338;SDS011;31071;51.478;5.710;2023-07-13T03:36:02;6.97;;;2.90;;
45338;SDS011;31071;51.478;5.710;2023-07-13T03:38:29;12.00;;;3.33;;
45338;SDS011;31071;51.478;5.710;2023-07-13T03:40:55;13.35;;;2.88;;
45338;SDS011;31071;51.478;5.710;2023-07-13T03:43:20;8.23;;;2.88;;
45338;SDS011;31071;51.478;5.710;2023-07-13T03:45:46;9.30;;;3.20;;
45338;SDS011;31071;51.478;5.710;2023-07-13T03:48:13;7.45;;;3.17;;
45338;SDS011;31071;51.478;5.710;2023-07-13T03:50:39;10.02;;;3.38;;
45338;SDS011;31071;51.478;5.710;2023-07-13T03:53:05;7.38;;;2.95;;
45338;SDS011;31071;51.478;5.710;2023-07-13T03:55:30;13.30;;;3.50;;
45338;SDS011;31071;51.478;5.710;2023-07-13T03:58:00;8.18;;;2.88;;
45338;SDS011;31071;51.478;5.710;2023-07-13T04:00:46;11.75;;;2.83;;
45338;SDS011;31071;51.478;5.710;2023-07-13T04:03:12;12.15;;;3.38;;
45338;SDS011;31071;51.478;5.710;2023-07-13T04:05:38;7.28;;;3.05;;
45338;SDS011;31071;51.478;5.710;2023-07-13T04:08:05;8.75;;;2.97;;
45338;SDS011;31071;51.478;5.710;2023-07-13T04:10:31;11.90;;;3.35;;
45338;SDS011;31071;51.478;5.710;2023-07-13T04:12:57;7.88;;;3.17;;
45338;SDS011;31071;51.478;5.710;2023-07-13T04:15:23;7.72;;;3.20;;
45338;SDS011;31071;51.478;5.710;2023-07-13T04:17:48;9.68;;;3.35;;
45338;SDS011;31071;51.478;5.710;2023-07-13T04:20:14;11.98;;;3.53;;
45338;SDS011;31071;51.478;5.710;2023-07-13T04:22:40;10.40;;;3.72;;
45338;SDS011;31071;51.478;5.710;2023-07-13T04:25:05;10.70;;;3.65;;
45338;SDS011;31071;51.478;5.710;2023-07-13T04:27:31;14.05;;;4.20;;
45338;SDS011;31071;51.478;5.710;2023-07-13T04:29:57;14.57;;;3.53;;
45338;SDS011;31071;51.478;5.710;2023-07-13T04:32:23;8.15;;;3.38;;
45338;SDS011;31071;51.478;5.710;2023-07-13T04:34:52;9.18;;;3.90;;
45338;SDS011;31071;51.478;5.710;2023-07-13T04:37:20;14.65;;;4.15;;
45338;SDS011;31071;51.478;5.710;2023-07-13T04:39:46;8.77;;;4.20;;
45338;SDS011;31071;51.478;5.710;2023-07-13T04:42:12;17.13;;;4.90;;
45338;SDS011;31071;51.478;5.710;2023-07-13T04:44:38;11.50;;;4.45;;
45338;SDS011;31071;51.478;5.710;2023-07-13T04:47:03;13.13;;;5.00;;
45338;SDS011;31071;51.478;5.710;2023-07-13T04:49:29;13.95;;;5.60;;
45338;SDS011;31071;51.478;5.710;2023-07-13T04:51:55;19.98;;;5.90;;
45338;SDS011;31071;51.478;5.710;2023-07-13T04:54:21;17.90;;;6.30;;
45338;SDS011;31071;51.478;5.710;2023-07-13T04:56:47;16.73;;;5.60;;
45338;SDS011;31071;51.478;5.710;2023-07-13T04:59:13;16.55;;;5.38;;
45338;SDS011;31071;51.478;5.710;2023-07-13T05:01:39;17.40;;;5.95;;
45338;SDS011;31071;51.478;5.710;2023-07-13T05:04:05;18.70;;;6.15;;
45338;SDS011;31071;51.478;5.710;2023-07-13T05:06:31;16.20;;;5.82;;
45338;SDS011;31071;51.478;5.710;2023-07-13T05:08:57;17.65;;;5.82;;
45338;SDS011;31071;51.478;5.710;2023-07-13T05:11:23;16.02;;;5.78;;
45338;SDS011;31071;51.478;5.710;2023-07-13T05:13:49;21.48;;;6.13;;
45338;SDS011;31071;51.478;5.710;2023-07-13T05:16:14;19.42;;;7.30;;
45338;SDS011;31071;51.478;5.710;2023-07-13T05:18:40;22.90;;;6.47;;
45338;SDS011;31071;51.478;5.710;2023-07-13T05:21:07;23.35;;;6.90;;
45338;SDS011;31071;51.478;5.710;2023-07-13T05:23:34;22.27;;;7.10;;
45338;SDS011;31071;51.478;5.710;2023-07-13T05:26:02;18.52;;;6.88;;
45338;SDS011;31071;51.478;5.710;2023-07-13T05:28:30;18.95;;;7.30;;
45338;SDS011;31071;51.478;5.710;2023-07-13T05:30:57;19.88;;;7.85;;
45338;SDS011;31071;51.478;5.710;2023-07-13T05:33:23;19.20;;;6.70;;
45338;SDS011;31071;51.478;5.710;2023-07-13T05:35:49;19.90;;;7.78;;
45338;SDS011;31071;51.478;5.710;2023-07-13T05:38:15;19.98;;;7.75;;
45338;SDS011;31071;51.478;5.710;2023-07-13T05:40:45;22.30;;;7.90;;
45338;SDS011;31071;51.478;5.710;2023-07-13T05:43:14;22.27;;;8.10;;
45338;SDS011;31071;51.478;5.710;2023-07-13T05:45:43;16.88;;;6.95;;
45338;SDS011;31071;51.478;5.710;2023-07-13T05:48:09;23.05;;;7.50;;
45338;SDS011;31071;51.478;5.710;2023-07-13T05:50:34;27.55;;;7.60;;
45338;SDS011;31071;51.478;5.710;2023-07-13T05:53:00;20.85;;;7.78;;
45338;SDS011;31071;51.478;5.710;2023-07-13T05:55:26;22.52;;;7.15;;
45338;SDS011;31071;51.478;5.710;2023-07-13T05:57:52;23.85;;;8.07;;
45338;SDS011;31071;51.478;5.710;2023-07-13T06:00:17;20.60;;;7.55;;
45338;SDS011;31071;51.478;5.710;2023-07-13T06:02:46;21.83;;;8.05;;
45338;SDS011;31071;51.478;5.710;2023-07-13T07:08:05;20.40;;;8.80;;
45338;SDS011;31071;51.478;5.710;2023-07-13T07:25:33;23.27;;;8.05;;
45338;SDS011;31071;51.478;5.710;2023-07-13T07:43:08;19.90;;;6.93;;
45338;SDS011;31071;51.478;5.710;2023-07-13T08:29:50;19.00;;;6.45;;
45338;SDS011;31071;51.478;5.710;2023-07-13T08:42:13;13.27;;;5.13;;
45338;SDS011;31071;51.478;5.710;2023-07-13T09:54:16;8.18;;;3.55;;
45338;SDS011;31071;51.478;5.710;2023-07-13T10:08:47;10.90;;;3.10;;
45338;SDS011;31071;51.478;5.710;2023-07-13T10:12:00;8.45;;;3.47;;
45338;SDS011;31071;51.478;5.710;2023-07-13T10:33:14;11.75;;;3.38;;
45338;SDS011;31071;51.478;5.710;2023-07-13T10:40:06;7.75;;;2.83;;
45338;SDS011;31071;51.478;5.710;2023-07-13T10:42:53;12.40;;;3.53;;
45338;SDS011;31071;51.478;5.710;2023-07-13T10:45:24;9.82;;;3.17;;
45338;SDS011;31071;51.478;5.710;2023-07-13T10:47:52;8.68;;;3.10;;
45338;SDS011;31071;51.478;5.710;2023-07-13T10:50:24;10.43;;;2.90;;
45338;SDS011;31071;51.478;5.710;2023-07-13T10:53:01;11.05;;;3.15;;
45338;SDS011;31071;51.478;5.710;2023-07-13T10:55:39;8.88;;;2.83;;
45338;SDS011;31071;51.478;5.710;2023-07-13T10:58:37;5.88;;;2.60;;
45338;SDS011;31071;51.478;5.710;2023-07-13T11:01:23;9.93;;;2.67;;
45338;SDS011;31071;51.478;5.710;2023-07-13T11:04:45;4.65;;;2.28;;
45338;SDS011;31071;51.478;5.710;2023-07-13T11:07:29;9.10;;;2.60;;
45338;SDS011;31071;51.478;5.710;2023-07-13T11:16:26;12.60;;;2.58;;
45338;SDS011;31071;51.478;5.710;2023-07-13T11:21:27;14.52;;;3.58;;
45338;SDS011;31071;51.478;5.710;2023-07-13T11:24:13;8.18;;;3.75;;
45338;SDS011;31071;51.478;5.710;2023-07-13T11:26:50;10.38;;;4.20;;
45338;SDS011;31071;51.478;5.710;2023-07-13T11:32:25;9.77;;;3.67;;
45338;SDS011;31071;51.478;5.710;2023-07-13T11:34:56;8.93;;;3.80;;
45338;SDS011;31071;51.478;5.710;2023-07-13T11:46:28;8.25;;;3.50;;
45338;SDS011;31071;51.478;5.710;2023-07-13T11:48:57;8.32;;;3.38;;
45338;SDS011;31071;51.478;5.710;2023-07-13T11:51:35;9.43;;;3.80;;
45338;SDS011;31071;51.478;5.710;2023-07-13T11:54:10;8.63;;;3.33;;
45338;SDS011;31071;51.478;5.710;2023-07-13T12:00:25;7.60;;;3.00;;
45338;SDS011;31071;51.478;5.710;2023-07-13T12:03:10;9.60;;;3.33;;
45338;SDS011;31071;51.478;5.710;2023-07-13T12:05:56;4.97;;;2.80;;
45338;SDS011;31071;51.478;5.710;2023-07-13T12:12:03;10.60;;;3.03;;
45338;SDS011;31071;51.478;5.710;2023-07-13T12:17:23;6.88;;;2.78;;
45338;SDS011;31071;51.478;5.710;2023-07-13T12:51:38;9.40;;;3.60;;
45338;SDS011;31071;51.478;5.710;2023-07-13T12:54:18;9.93;;;4.10;;
45338;SDS011;31071;51.478;5.710;2023-07-13T12:56:56;11.70;;;4.15;;
45338;SDS011;31071;51.478;5.710;2023-07-13T12:59:46;7.45;;;4.00;;
45338;SDS011;31071;51.478;5.710;2023-07-13T13:02:34;8.35;;;4.30;;
45338;SDS011;31071;51.478;5.710;2023-07-13T13:05:00;10.63;;;4.43;;
45338;SDS011;31071;51.478;5.710;2023-07-13T13:07:34;7.40;;;4.43;;
45338;SDS011;31071;51.478;5.710;2023-07-13T13:10:07;7.63;;;3.83;;
45338;SDS011;31071;51.478;5.710;2023-07-13T13:12:46;8.32;;;3.88;;
45338;SDS011;31071;51.478;5.710;2023-07-13T13:15:18;8.40;;;3.75;;
45338;SDS011;31071;51.478;5.710;2023-07-13T13:18:13;6.65;;;2.67;;
45338;SDS011;31071;51.478;5.710;2023-07-13T13:20:49;4.70;;;2.22;;
45338;SDS011;31071;51.478;5.710;2023-07-13T13:23:16;4.85;;;2.33;;
45338;SDS011;31071;51.478;5.710;2023-07-13T13:25:49;5.63;;;2.15;;
45338;SDS011;31071;51.478;5.710;2023-07-13T13:28:19;5.18;;;2.13;;
45338;SDS011;31071;51.478;5.710;2023-07-13T13:33:44;5.47;;;2.22;;
45338;SDS011;31071;51.478;5.710;2023-07-13T13:36:18;4.10;;;2.15;;
45338;SDS011;31071;51.478;5.710;2023-07-13T13:38:45;5.25;;;2.30;;
45338;SDS011;31071;51.478;5.710;2023-07-13T13:41:23;5.32;;;3.00;;
45338;SDS011;31071;51.478;5.710;2023-07-13T13:46:34;5.82;;;2.70;;
45338;SDS011;31071;51.478;5.710;2023-07-13T13:52:04;6.47;;;3.15;;
45338;SDS011;31071;51.478;5.710;2023-07-13T13:57:37;8.60;;;4.05;;
45338;SDS011;31071;51.478;5.710;2023-07-13T14:09:38;5.70;;;3.75;;
45338;SDS011;31071;51.478;5.710;2023-07-13T14:12:39;7.63;;;3.85;;
45338;SDS011;31071;51.478;5.710;2023-07-13T14:19:27;7.88;;;3.35;;
45338;SDS011;31071;51.478;5.710;2023-07-13T14:25:18;5.55;;;3.30;;
45338;SDS011;31071;51.478;5.710;2023-07-13T14:27:59;6.25;;;3.20;;
45338;SDS011;31071;51.478;5.710;2023-07-13T14:30:54;5.47;;;3.15;;
45338;SDS011;31071;51.478;5.710;2023-07-13T14:40:11;5.97;;;3.00;;
45338;SDS011;31071;51.478;5.710;2023-07-13T14:43:17;6.38;;;3.30;;
45338;SDS011;31071;51.478;5.710;2023-07-13T14:46:01;4.93;;;2.92;;
45338;SDS011;31071;51.478;5.710;2023-07-13T15:09:54;5.03;;;1.77;;
45338;SDS011;31071;51.478;5.710;2023-07-13T15:19:21;3.33;;;1.40;;
45338;SDS011;31071;51.478;5.710;2023-07-13T15:33:27;4.35;;;1.90;;
45338;SDS011;31071;51.478;5.710;2023-07-13T15:35:54;3.03;;;2.08;;
45338;SDS011;31071;51.478;5.710;2023-07-13T15:38:25;2.55;;;1.60;;
45338;SDS011;31071;51.478;5.710;2023-07-13T15:40:53;8.10;;;5.10;;
45338;SDS011;31071;51.478;5.710;2023-07-13T15:43:25;4.00;;;2.10;;
45338;SDS011;31071;51.478;5.710;2023-07-13T15:45:57;9.20;;;2.30;;
45338;SDS011;31071;51.478;5.710;2023-07-13T15:51:33;5.85;;;2.35;;
45338;SDS011;31071;51.478;5.710;2023-07-13T15:54:02;4.50;;;1.98;;
45338;SDS011;31071;51.478;5.710;2023-07-13T15:56:34;2.55;;;1.80;;
45338;SDS011;31071;51.478;5.710;2023-07-13T15:59:02;2.92;;;1.88;;
45338;SDS011;31071;51.478;5.710;2023-07-13T16:01:28;4.55;;;2.08;;
45338;SDS011;31071;51.478;5.710;2023-07-13T16:03:56;4.03;;;2.03;;
45338;SDS011;31071;51.478;5.710;2023-07-13T16:06:34;3.85;;;1.95;;
45338;SDS011;31071;51.478;5.710;2023-07-13T16:09:09;6.60;;;1.98;;
45338;SDS011;31071;51.478;5.710;2023-07-13T16:11:46;5.15;;;2.00;;
45338;SDS011;31071;51.478;5.710;2023-07-13T16:14:13;4.35;;;2.45;;
45338;SDS011;31071;51.478;5.710;2023-07-13T16:16:41;5.78;;;2.42;;
45338;SDS011;31071;51.478;5.710;2023-07-13T16:19:08;5.05;;;2.55;;
45338;SDS011;31071;51.478;5.710;2023-07-13T16:21:39;5.97;;;2.50;;
45338;SDS011;31071;51.478;5.710;2023-07-13T16:24:27;5.00;;;2.75;;
45338;SDS011;31071;51.478;5.710;2023-07-13T16:26:53;3.40;;;2.42;;
45338;SDS011;31071;51.478;5.710;2023-07-13T16:29:21;4.18;;;2.70;;
45338;SDS011;31071;51.478;5.710;2023-07-13T16:32:02;5.70;;;2.63;;
45338;SDS011;31071;51.478;5.710;2023-07-13T16:34:29;4.68;;;2.33;;
45338;SDS011;31071;51.478;5.710;2023-07-13T16:36:56;5.45;;;2.35;;
45338;SDS011;31071;51.478;5.710;2023-07-13T16:39:22;5.80;;;2.95;;
45338;SDS011;31071;51.478;5.710;2023-07-13T16:41:53;6.43;;;3.10;;
45338;SDS011;31071;51.478;5.710;2023-07-13T16:44:20;5.15;;;2.72;;
45338;SDS011;31071;51.478;5.710;2023-07-13T16:46:51;7.68;;;3.10;;
45338;SDS011;31071;51.478;5.710;2023-07-13T16:51:58;5.03;;;2.60;;
45338;SDS011;31071;51.478;5.710;2023-07-13T16:54:37;4.47;;;3.00;;
45338;SDS011;31071;51.478;5.710;2023-07-13T16:57:11;5.63;;;3.13;;
45338;SDS011;31071;51.478;5.710;2023-07-13T16:59:39;8.07;;;2.55;;
45338;SDS011;31071;51.478;5.710;2023-07-13T17:02:17;3.72;;;2.28;;
45338;SDS011;31071;51.478;5.710;2023-07-13T17:04:52;6.57;;;3.28;;
45338;SDS011;31071;51.478;5.710;2023-07-13T17:07:18;6.47;;;2.90;;
45338;SDS011;31071;51.478;5.710;2023-07-13T17:09:44;5.82;;;2.67;;
45338;SDS011;31071;51.478;5.710;2023-07-13T17:12:11;6.47;;;2.92;;
45338;SDS011;31071;51.478;5.710;2023-07-13T17:14:37;4.22;;;2.90;;
45338;SDS011;31071;51.478;5.710;2023-07-13T17:17:05;5.30;;;2.75;;
45338;SDS011;31071;51.478;5.710;2023-07-13T17:19:42;5.15;;;2.95;;
45338;SDS011;31071;51.478;5.710;2023-07-13T17:22:12;4.32;;;2.42;;
45338;SDS011;31071;51.478;5.710;2023-07-13T17:24:43;5.40;;;2.60;;
45338;SDS011;31071;51.478;5.710;2023-07-13T17:27:10;5.72;;;2.92;;
45338;SDS011;31071;51.478;5.710;2023-07-13T17:29:37;4.05;;;2.63;;
45338;SDS011;31071;51.478;5.710;2023-07-13T17:32:03;3.67;;;2.45;;
45338;SDS011;31071;51.478;5.710;2023-07-13T17:34:33;5.32;;;2.60;;
45338;SDS011;31071;51.478;5.710;2023-07-13T17:36:59;6.20;;;2.85;;
45338;SDS011;31071;51.478;5.710;2023-07-13T17:39:25;10.23;;;3.22;;
45338;SDS011;31071;51.478;5.710;2023-07-13T17:41:51;5.53;;;2.80;;
45338;SDS011;31071;51.478;5.710;2023-07-13T17:44:19;6.40;;;2.85;;
45338;SDS011;31071;51.478;5.710;2023-07-13T17:46:46;4.68;;;3.00;;
45338;SDS011;31071;51.478;5.710;2023-07-13T17:49:17;4.28;;;3.10;;
45338;SDS011;31071;51.478;5.710;2023-07-13T17:51:54;5.47;;;3.05;;
45338;SDS011;31071;51.478;5.710;2023-07-13T17:54:21;6.28;;;3.50;;
45338;SDS011;31071;51.478;5.710;2023-07-13T17:56:49;4.53;;;2.83;;
45338;SDS011;31071;51.478;5.710;2023-07-13T17:59:15;4.50;;;2.78;;
45338;SDS011;31071;51.478;5.710;2023-07-13T18:01:42;9.73;;;3.40;;
45338;SDS011;31071;51.478;5.710;2023-07-13T18:04:08;16.70;;;4.18;;
45338;SDS011;31071;51.478;5.710;2023-07-13T18:06:38;7.60;;;3.05;;
45338;SDS011;31071;51.478;5.710;2023-07-13T18:09:14;10.65;;;3.13;;
45338;SDS011;31071;51.478;5.710;2023-07-13T18:11:43;5.80;;;3.13;;
45338;SDS011;31071;51.478;5.710;2023-07-13T18:14:09;8.15;;;3.20;;
45338;SDS011;31071;51.478;5.710;2023-07-13T18:16:41;9.15;;;3.35;;
45338;SDS011;31071;51.478;5.710;2023-07-13T18:19:17;6.45;;;3.33;;
45338;SDS011;31071;51.478;5.710;2023-07-13T18:21:47;7.43;;;3.60;;
45338;SDS011;31071;51.478;5.710;2023-07-13T18:24:13;5.78;;;3.40;;
45338;SDS011;31071;51.478;5.710;2023-07-13T18:26:39;8.20;;;3.42;;
45338;SDS011;31071;51.478;5.710;2023-07-13T18:29:05;8.55;;;3.38;;
45338;SDS011;31071;51.478;5.710;2023-07-13T18:31:33;7.72;;;3.40;;
45338;SDS011;31071;51.478;5.710;2023-07-13T18:34:00;4.95;;;3.78;;
45338;SDS011;31071;51.478;5.710;2023-07-13T18:36:27;8.75;;;3.60;;
45338;SDS011;31071;51.478;5.710;2023-07-13T18:38:53;4.03;;;2.85;;
45338;SDS011;31071;51.478;5.710;2023-07-13T18:41:19;5.97;;;3.30;;
45338;SDS011;31071;51.478;5.710;2023-07-13T18:43:46;9.98;;;3.42;;
45338;SDS011;31071;51.478;5.710;2023-07-13T18:46:24;6.28;;;3.53;;
45338;SDS011;31071;51.478;5.710;2023-07-13T18:48:57;7.93;;;4.07;;
45338;SDS011;31071;51.478;5.710;2023-07-13T18:51:23;5.55;;;3.38;;
45338;SDS011;31071;51.478;5.710;2023-07-13T18:53:49;7.63;;;4.00;;
45338;SDS011;31071;51.478;5.710;2023-07-13T18:56:15;8.85;;;4.15;;
45338;SDS011;31071;51.478;5.710;2023-07-13T18:58:41;7.90;;;3.72;;
45338;SDS011;31071;51.478;5.710;2023-07-13T19:01:17;6.68;;;3.70;;
45338;SDS011;31071;51.478;5.710;2023-07-13T19:03:46;6.63;;;3.78;;
45338;SDS011;31071;51.478;5.710;2023-07-13T19:06:16;6.75;;;4.53;;
45338;SDS011;31071;51.478;5.710;2023-07-13T19:08:42;7.45;;;4.07;;
45338;SDS011;31071;51.478;5.710;2023-07-13T19:11:10;6.03;;;3.80;;
45338;SDS011;31071;51.478;5.710;2023-07-13T19:13:39;5.32;;;3.65;;
45338;SDS011;31071;51.478;5.710;2023-07-13T19:16:07;7.00;;;4.10;;
45338;SDS011;31071;51.478;5.710;2023-07-13T19:18:34;8.13;;;3.95;;
45338;SDS011;31071;51.478;5.710;2023-07-13T19:21:08;6.00;;;3.90;;
45338;SDS011;31071;51.478;5.710;2023-07-13T19:23:54;7.20;;;4.05;;
45338;SDS011;31071;51.478;5.710;2023-07-13T19:26:23;7.97;;;4.15;;
45338;SDS011;31071;51.478;5.710;2023-07-13T19:28:56;7.10;;;3.40;;
45338;SDS011;31071;51.478;5.710;2023-07-13T19:36:38;4.95;;;3.28;;
45338;SDS011;31071;51.478;5.710;2023-07-13T19:39:04;6.07;;;3.90;;
45338;SDS011;31071;51.478;5.710;2023-07-13T19:41:36;8.82;;;4.10;;
45338;SDS011;31071;51.478;5.710;2023-07-13T19:44:02;8.63;;;3.67;;
45338;SDS011;31071;51.478;5.710;2023-07-13T19:46:30;4.00;;;3.60;;
45338;SDS011;31071;51.478;5.710;2023-07-13T19:48:59;5.47;;;3.67;;
45338;SDS011;31071;51.478;5.710;2023-07-13T19:51:29;6.28;;;4.03;;
45338;SDS011;31071;51.478;5.710;2023-07-13T19:53:58;6.40;;;3.58;;
45338;SDS011;31071;51.478;5.710;2023-07-13T19:56:26;5.20;;;4.00;;
45338;SDS011;31071;51.478;5.710;2023-07-13T19:58:52;4.80;;;3.47;;
45338;SDS011;31071;51.478;5.710;2023-07-13T20:01:18;5.88;;;3.75;;
45338;SDS011;31071;51.478;5.710;2023-07-13T20:03:44;6.90;;;3.97;;
45338;SDS011;31071;51.478;5.710;2023-07-13T20:08:57;6.07;;;4.03;;
45338;SDS011;31071;51.478;5.710;2023-07-13T20:11:24;6.78;;;3.97;;
45338;SDS011;31071;51.478;5.710;2023-07-13T20:13:50;6.03;;;3.85;;
45338;SDS011;31071;51.478;5.710;2023-07-13T20:16:16;5.07;;;4.07;;
45338;SDS011;31071;51.478;5.710;2023-07-13T20:18:42;4.95;;;4.03;;
45338;SDS011;31071;51.478;5.710;2023-07-13T20:21:11;6.60;;;3.92;;
45338;SDS011;31071;51.478;5.710;2023-07-13T20:23:37;8.05;;;4.20;;
45338;SDS011;31071;51.478;5.710;2023-07-13T20:26:03;5.95;;;4.30;;
45338;SDS011;31071;51.478;5.710;2023-07-13T20:28:30;4.93;;;3.95;;
45338;SDS011;31071;51.478;5.710;2023-07-13T20:30:55;7.93;;;3.70;;
45338;SDS011;31071;51.478;5.710;2023-07-13T20:33:22;6.72;;;4.00;;
45338;SDS011;31071;51.478;5.710;2023-07-13T20:35:53;5.70;;;4.20;;
45338;SDS011;31071;51.478;5.710;2023-07-13T20:38:21;8.02;;;4.43;;
45338;SDS011;31071;51.478;5.710;2023-07-13T20:40:48;5.72;;;4.18;;
45338;SDS011;31071;51.478;5.710;2023-07-13T20:43:20;5.88;;;4.20;;
45338;SDS011;31071;51.478;5.710;2023-07-13T20:45:55;8.98;;;4.65;;
45338;SDS011;31071;51.478;5.710;2023-07-13T20:48:27;5.13;;;4.47;;
45338;SDS011;31071;51.478;5.710;2023-07-13T20:51:05;7.50;;;4.50;;
45338;SDS011;31071;51.478;5.710;2023-07-13T20:53:35;6.18;;;4.55;;
45338;SDS011;31071;51.478;5.710;2023-07-13T20:56:01;8.57;;;4.43;;
45338;SDS011;31071;51.478;5.710;2023-07-13T20:58:27;6.03;;;4.40;;
45338;SDS011;31071;51.478;5.710;2023-07-13T21:00:52;7.35;;;4.57;;
45338;SDS011;31071;51.478;5.710;2023-07-13T21:03:23;7.30;;;4.72;;
45338;SDS011;31071;51.478;5.710;2023-07-13T21:05:53;6.60;;;4.60;;
45338;SDS011;31071;51.478;5.710;2023-07-13T21:08:23;8.48;;;4.47;;
45338;SDS011;31071;51.478;5.710;2023-07-13T21:10:51;5.65;;;4.30;;
45338;SDS011;31071;51.478;5.710;2023-07-13T21:13:17;5.15;;;4.28;;
45338;SDS011;31071;51.478;5.710;2023-07-13T21:15:45;8.57;;;4.85;;
45338;SDS011;31071;51.478;5.710;2023-07-13T21:18:16;8.57;;;4.72;;
45338;SDS011;31071;51.478;5.710;2023-07-13T21:20:45;7.60;;;4.85;;
45338;SDS011;31071;51.478;5.710;2023-07-13T21:23:30;10.68;;;5.25;;
45338;SDS011;31071;51.478;5.710;2023-07-13T21:25:59;5.30;;;4.50;;
45338;SDS011;31071;51.478;5.710;2023-07-13T21:28:27;7.93;;;5.30;;
45338;SDS011;31071;51.478;5.710;2023-07-13T21:30:54;8.75;;;5.22;;
45338;SDS011;31071;51.478;5.710;2023-07-13T21:33:23;6.22;;;4.75;;
45338;SDS011;31071;51.478;5.710;2023-07-13T21:35:50;6.85;;;4.65;;
45338;SDS011;31071;51.478;5.710;2023-07-13T21:38:17;6.15;;;4.88;;
45338;SDS011;31071;51.478;5.710;2023-07-13T21:40:52;7.68;;;4.80;;
45338;SDS011;31071;51.478;5.710;2023-07-13T21:43:25;6.10;;;4.78;;
45338;SDS011;31071;51.478;5.710;2023-07-13T21:45:51;7.53;;;4.72;;
45338;SDS011;31071;51.478;5.710;2023-07-13T21:48:17;7.43;;;5.20;;
45338;SDS011;31071;51.478;5.710;2023-07-13T21:50:47;6.63;;;4.88;;
45338;SDS011;31071;51.478;5.710;2023-07-13T21:53:22;8.10;;;5.35;;
45338;SDS011;31071;51.478;5.710;2023-07-13T21:55:56;7.35;;;4.82;;
45338;SDS011;31071;51.478;5.710;2023-07-13T21:58:30;9.25;;;4.85;;